Time;durP1;ratioP1;P1;durP2;ratioP2;P2;SDS_P1;SDS_P2;PMS_P1;PMS_P2;Temp;Humidity;BMP_temperature;BMP_pressure;BME280_temperature;BME280_humidity;BME280_pressure;Samples;Min_cycle;Max_cycle;Signal;HPM_P1;HPM_P2
2022/03/15 00:01:24;;;;;;;10.37;6.93;;;8.90;1.00;;;;;;5069877;28;20480;-63
2022/03/15 00:03:50;;;;;;;8.97;6.10;;;8.80;1.00;;;;;;5070481;28;20184;-63
2022/03/15 00:06:21;;;;;;;6.80;5.30;;;8.70;1.00;;;;;;5049953;28;20542;-64
2022/03/15 00:08:48;;;;;;;10.63;5.93;;;8.60;1.00;;;;;;5068409;28;20450;-63
2022/03/15 00:11:24;;;;;;;7.57;5.83;;;8.50;1.00;;;;;;5063381;28;20492;-62
2022/03/15 00:13:49;;;;;;;10.63;6.30;;;8.50;1.00;;;;;;5061119;28;21230;-62
2022/03/15 00:16:30;;;;;;;9.10;6.07;;;8.40;1.00;;;;;;5069093;28;20450;-63
2022/03/15 00:18:56;;;;;;;8.70;5.50;;;8.50;1.00;;;;;;5064481;28;20183;-63
2022/03/15 00:21:25;;;;;;;9.87;6.00;;;8.40;1.00;;;;;;5069376;28;22038;-63
2022/03/15 00:23:50;;;;;;;11.67;5.77;;;8.20;1.00;;;;;;5067791;28;20445;-63
2022/03/15 00:26:25;;;;;;;9.57;6.03;;;8.10;1.00;;;;;;5065120;28;20511;-64
2022/03/15 00:28:51;;;;;;;8.13;5.60;;;8.20;1.00;;;;;;5066626;28;20536;-63
2022/03/15 00:31:26;;;;;;;9.30;6.37;;;8.20;1.00;;;;;;5070451;28;20430;-61
2022/03/15 00:33:52;;;;;;;9.47;6.30;;;8.10;1.00;;;;;;5068258;28;20527;-63
2022/03/15 00:36:17;;;;;;;10.93;6.40;;;8.10;1.00;;;;;;5058780;28;20450;-63
2022/03/15 00:38:43;;;;;;;8.97;5.93;;;8.10;1.00;;;;;;5065526;28;20190;-62
2022/03/15 00:41:28;;;;;;;7.50;6.23;;;8.00;1.00;;;;;;5069582;28;20207;-63
2022/03/15 00:43:54;;;;;;;10.27;5.60;;;8.00;1.00;;;;;;5066766;28;20194;-63
2022/03/15 00:46:22;;;;;;;8.47;6.50;;;8.00;1.00;;;;;;5069045;28;20452;-64
2022/03/15 00:48:48;;;;;;;6.23;5.33;;;8.00;1.00;;;;;;5070096;28;20183;-64
2022/03/15 00:51:27;;;;;;;9.00;4.63;;;8.00;1.00;;;;;;5068308;28;21617;-64
2022/03/15 00:53:53;;;;;;;8.60;5.80;;;7.90;1.00;;;;;;5067251;28;20327;-64
2022/03/15 00:56:21;;;;;;;12.97;5.10;;;7.90;1.00;;;;;;5048177;28;20438;-61
2022/03/15 00:58:48;;;;;;;8.33;5.30;;;7.80;1.00;;;;;;5065460;28;20641;-63
2022/03/15 01:01:25;;;;;;;8.30;5.97;;;7.70;1.00;;;;;;5069920;28;20583;-62
2022/03/15 01:03:51;;;;;;;9.67;6.77;;;7.70;1.00;;;;;;5069040;28;20460;-63
2022/03/15 01:06:17;;;;;;;8.07;5.30;;;7.70;1.00;;;;;;5066853;28;20450;-61
2022/03/15 01:08:42;;;;;;;7.90;4.70;;;7.80;1.00;;;;;;5065845;28;20206;-62
2022/03/15 01:11:08;;;;;;;6.23;5.03;;;8.00;1.00;;;;;;5069550;28;20636;-62
2022/03/15 01:13:34;;;;;;;4.43;4.03;;;8.00;1.00;;;;;;5070537;28;20215;-63
2022/03/15 01:15:59;;;;;;;9.13;4.90;;;8.20;1.00;;;;;;5068851;28;20633;-62
2022/03/15 01:18:25;;;;;;;9.03;5.10;;;8.20;1.00;;;;;;5069807;28;20241;-63
2022/03/15 01:20:51;;;;;;;6.00;5.07;;;8.30;1.00;;;;;;5069599;28;20183;-62
2022/03/15 01:23:17;;;;;;;7.00;4.80;;;8.10;1.00;;;;;;5068957;28;20194;-63
2022/03/15 01:25:43;;;;;;;6.50;5.10;;;7.90;1.00;;;;;;5068197;28;20449;-63
2022/03/15 01:28:09;;;;;;;9.93;5.60;;;7.80;1.00;;;;;;5050673;28;20496;-62
2022/03/15 01:30:34;;;;;;;6.90;4.53;;;7.70;1.00;;;;;;5069808;28;20183;-63
2022/03/15 01:33:00;;;;;;;4.70;4.00;;;7.70;1.00;;;;;;5069072;28;20652;-63
2022/03/15 01:35:25;;;;;;;7.90;5.10;;;7.60;1.00;;;;;;5069532;28;20668;-64
2022/03/15 01:37:51;;;;;;;8.20;4.63;;;7.50;1.00;;;;;;5066915;28;20183;-65
2022/03/15 01:40:16;;;;;;;8.80;5.07;;;7.80;1.00;;;;;;5069518;28;20179;-63
2022/03/15 01:42:42;;;;;;;5.33;4.30;;;7.70;1.00;;;;;;5067236;28;20290;-63
2022/03/15 01:45:09;;;;;;;6.07;4.83;;;7.70;1.00;;;;;;5049480;28;20183;-63
2022/03/15 01:47:35;;;;;;;4.87;4.30;;;7.80;1.00;;;;;;5067649;28;20660;-63
2022/03/15 01:50:02;;;;;;;8.83;5.00;;;7.70;1.00;;;;;;5069222;28;20437;-64
2022/03/15 01:52:27;;;;;;;6.77;5.63;;;7.70;1.00;;;;;;5068180;28;20180;-63
2022/03/15 01:54:53;;;;;;;11.23;5.40;;;7.70;1.00;;;;;;5068721;28;20450;-62
2022/03/15 01:57:19;;;;;;;7.20;5.23;;;;;;;;;;5069647;28;20251;-62
2022/03/15 01:59:45;;;;;;;6.57;5.50;;;7.50;1.00;;;;;;5045506;28;20209;-62
2022/03/15 02:02:11;;;;;;;8.70;5.43;;;7.50;1.00;;;;;;5068795;28;20470;-62
2022/03/15 02:04:37;;;;;;;7.40;5.03;;;7.40;1.00;;;;;;5063088;28;20649;-64
2022/03/15 02:07:12;;;;;;;7.27;5.47;;;7.30;1.00;;;;;;5067553;28;20240;-62
2022/03/15 02:09:38;;;;;;;9.77;5.00;;;7.30;1.00;;;;;;5069260;28;20441;-63
2022/03/15 02:12:05;;;;;;;6.40;5.07;;;7.30;1.00;;;;;;5066745;28;20441;-62
2022/03/15 02:14:31;;;;;;;8.70;5.83;;;7.40;1.00;;;;;;5064156;28;20473;-62
2022/03/15 02:16:57;;;;;;;6.80;5.43;;;7.20;1.00;;;;;;5049591;28;20447;-62
2022/03/15 02:19:22;;;;;;;7.67;5.47;;;7.20;1.00;;;;;;5050084;28;20449;-62
2022/03/15 02:21:49;;;;;;;6.20;5.40;;;7.20;1.00;;;;;;5068780;28;20171;-63
2022/03/15 02:24:15;;;;;;;6.00;4.73;;;7.10;1.00;;;;;;5068769;28;20446;-62
2022/03/15 02:26:40;;;;;;;7.67;4.67;;;7.10;1.00;;;;;;5069554;28;20529;-62
2022/03/15 02:29:06;;;;;;;6.07;4.83;;;7.10;1.00;;;;;;5067197;28;20222;-62
2022/03/15 02:31:32;;;;;;;8.07;5.00;;;7.00;1.00;;;;;;5066957;28;20287;-63
2022/03/15 02:33:57;;;;;;;8.70;5.87;;;7.10;1.00;;;;;;5068468;28;20207;-63
2022/03/15 02:37:00;;;;;;;11.77;6.67;;;7.20;1.00;;;;;;5064543;28;20179;-60
2022/03/15 02:39:26;;;;;;;5.90;4.93;;;7.00;1.00;;;;;;5072470;28;20253;-63
2022/03/15 02:41:52;;;;;;;5.87;4.77;;;7.00;1.00;;;;;;5067713;28;20438;-63
2022/03/15 02:44:18;;;;;;;6.77;5.67;;;7.00;1.00;;;;;;5069001;28;20179;-62
2022/03/15 02:46:50;;;;;;;6.87;6.10;;;7.00;1.00;;;;;;5051848;28;20199;-62
2022/03/15 02:49:17;;;;;;;6.13;4.70;;;6.90;1.00;;;;;;5071072;28;20491;-62
2022/03/15 02:51:43;;;;;;;6.30;5.00;;;6.70;1.00;;;;;;5071507;28;20443;-62
2022/03/15 02:54:13;;;;;;;13.60;5.27;;;6.70;1.00;;;;;;5054208;28;20472;-63
2022/03/15 02:56:42;;;;;;;8.23;5.90;;;6.70;1.00;;;;;;5071408;28;20441;-63
2022/03/15 02:59:08;;;;;;;8.27;7.40;;;6.70;1.00;;;;;;5047134;28;20448;-63
2022/03/15 03:01:34;;;;;;;11.63;9.13;;;6.70;1.00;;;;;;5071056;28;20475;-63
2022/03/15 03:04:01;;;;;;;12.90;9.33;;;6.70;1.00;;;;;;5072207;28;20946;-62
2022/03/15 03:06:27;;;;;;;13.60;9.60;;;6.80;1.00;;;;;;5052675;28;20187;-62
2022/03/15 03:08:52;;;;;;;11.13;10.00;;;6.80;1.00;;;;;;5069798;28;20449;-62
2022/03/15 03:11:24;;;;;;;10.10;8.67;;;6.70;1.00;;;;;;5066786;28;20195;-63
2022/03/15 03:13:52;;;;;;;13.17;7.13;;;6.60;1.00;;;;;;5070950;28;20294;-62
2022/03/15 03:16:18;;;;;;;9.63;7.43;;;6.60;1.00;;;;;;5067742;28;20448;-61
2022/03/15 03:18:43;;;;;;;9.33;7.93;;;6.70;1.00;;;;;;5052831;28;20449;-64
2022/03/15 03:21:15;;;;;;;10.47;7.50;;;6.70;1.00;;;;;;5072283;28;21150;-63
2022/03/15 03:23:40;;;;;;;8.33;7.00;;;6.70;1.00;;;;;;5070443;28;20186;-63
2022/03/15 03:26:20;;;;;;;8.37;7.30;;;6.60;1.00;;;;;;5070572;28;20441;-63
2022/03/15 03:28:45;;;;;;;11.60;7.50;;;6.60;1.00;;;;;;5071422;28;20179;-63
2022/03/15 03:31:20;;;;;;;8.87;6.73;;;6.60;1.00;;;;;;5071551;28;20454;-62
2022/03/15 03:33:46;;;;;;;8.03;6.60;;;6.60;1.00;;;;;;5066868;28;20211;-63
2022/03/15 03:36:18;;;;;;;7.57;5.97;;;6.60;1.00;;;;;;5071418;28;20445;-64
2022/03/15 03:38:44;;;;;;;8.50;6.53;;;6.50;1.00;;;;;;5052242;28;20199;-63
2022/03/15 03:41:15;;;;;;;7.63;6.83;;;6.50;1.00;;;;;;5068285;28;20481;-64
2022/03/15 03:43:41;;;;;;;8.40;6.60;;;6.50;1.00;;;;;;5070295;28;20399;-62
2022/03/15 03:46:41;;;;;;;8.93;7.10;;;6.50;1.00;;;;;;5070585;28;20454;-63
2022/03/15 03:49:07;;;;;;;8.90;6.30;;;6.50;1.00;;;;;;5070084;28;20183;-62
2022/03/15 03:51:45;;;;;;;10.83;5.93;;;6.50;1.00;;;;;;5073106;28;20441;-62
2022/03/15 03:54:10;;;;;;;9.10;5.77;;;6.50;1.00;;;;;;5071208;28;20211;-64
2022/03/15 03:56:45;;;;;;;6.80;5.23;;;6.50;1.00;;;;;;5070934;28;20434;-64
2022/03/15 03:59:13;;;;;;;9.57;5.27;;;6.50;1.00;;;;;;5069916;28;20194;-62
2022/03/15 04:01:40;;;;;;;8.47;5.63;;;6.50;1.00;;;;;;5070406;28;20469;-63
2022/03/15 04:04:06;;;;;;;6.97;5.67;;;6.40;1.00;;;;;;5050485;28;20485;-62
2022/03/15 04:10:16;;;;;;;7.70;5.30;;;6.40;1.00;;;;;;4962962;28;20444;-62
2022/03/15 04:12:43;;;;;;;6.50;5.60;;;;;;;;;;4962744;28;20859;-63
2022/03/15 04:15:09;;;;;;;6.37;5.20;;;6.40;1.00;;;;;;5020583;28;20462;-64
2022/03/15 04:17:34;;;;;;;11.43;5.73;;;6.30;1.00;;;;;;5065248;28;20453;-62
2022/03/15 04:20:00;;;;;;;6.43;4.83;;;6.20;1.00;;;;;;5066055;28;20222;-62
2022/03/15 04:22:26;;;;;;;9.83;5.83;;;6.20;1.00;;;;;;5073188;28;20645;-63
2022/03/15 04:24:51;;;;;;;10.10;6.00;;;6.20;1.00;;;;;;5068347;28;20232;-62
2022/03/15 04:27:17;;;;;;;5.40;4.90;;;6.20;1.00;;;;;;5070956;28;20187;-62
2022/03/15 04:29:43;;;;;;;6.70;5.40;;;6.20;1.00;;;;;;5066873;28;20526;-61
2022/03/15 04:32:09;;;;;;;7.30;5.93;;;6.20;1.00;;;;;;5053855;28;20456;-61
2022/03/15 04:34:35;;;;;;;6.00;4.87;;;6.20;1.00;;;;;;5051915;28;20208;-62
2022/03/15 04:37:01;;;;;;;7.57;4.77;;;6.20;1.00;;;;;;5060287;28;20445;-63
2022/03/15 04:39:26;;;;;;;6.53;4.73;;;6.20;1.00;;;;;;5068242;28;20183;-62
2022/03/15 04:41:56;;;;;;;6.90;4.30;;;6.10;1.00;;;;;;5066504;28;20196;-61
2022/03/15 04:44:22;;;;;;;8.00;5.00;;;6.20;1.00;;;;;;5069620;28;20191;-62
2022/03/15 04:46:48;;;;;;;6.80;5.03;;;6.10;1.00;;;;;;5067738;28;20456;-63
2022/03/15 04:49:13;;;;;;;9.20;5.63;;;6.00;1.00;;;;;;5068791;28;20213;-63
2022/03/15 04:51:39;;;;;;;6.17;5.00;;;6.10;1.00;;;;;;5068832;28;20850;-63
2022/03/15 04:54:04;;;;;;;7.40;6.00;;;6.10;1.00;;;;;;5070380;28;20206;-62
2022/03/15 04:57:04;;;;;;;8.53;5.60;;;6.10;1.00;;;;;;5069719;28;20202;-61
2022/03/15 04:59:29;;;;;;;6.47;5.40;;;6.00;1.00;;;;;;5069354;28;20262;-62
2022/03/15 05:02:01;;;;;;;5.90;5.03;;;6.00;1.00;;;;;;5068563;28;20564;-62
2022/03/15 05:04:26;;;;;;;6.57;5.30;;;7.20;1.00;;;;;;5068544;28;20544;-63
2022/03/15 05:06:52;;;;;;;6.73;5.80;;;6.10;1.00;;;;;;5069624;28;20520;-63
2022/03/15 05:09:18;;;;;;;7.30;5.23;;;6.10;1.00;;;;;;5069545;28;20187;-62
2022/03/15 05:11:46;;;;;;;7.07;6.17;;;6.10;1.00;;;;;;5070312;28;20278;-63
2022/03/15 05:17:38;;;;;;;7.83;5.60;;;6.00;1.00;;;;;;4994286;28;20454;-63
2022/03/15 05:20:07;;;;;;;7.27;5.90;;;6.00;1.00;;;;;;5069734;28;20446;-63
2022/03/15 05:22:33;;;;;;;7.73;5.70;;;6.00;1.00;;;;;;5069062;28;20270;-62
2022/03/15 05:24:59;;;;;;;10.00;6.83;;;5.90;1.00;;;;;;5067598;28;20504;-64
2022/03/15 05:27:26;;;;;;;10.50;7.27;;;7.80;1.00;;;;;;5070328;28;20822;-63
2022/03/15 05:29:54;;;;;;;10.57;7.00;;;6.00;1.00;;;;;;5070950;28;20442;-63
2022/03/15 05:32:20;;;;;;;9.07;6.93;;;6.00;1.00;;;;;;5070004;28;20449;-62
2022/03/15 05:34:46;;;;;;;10.50;7.13;;;5.90;1.00;;;;;;5048521;28;20465;-61
2022/03/15 05:37:11;;;;;;;10.03;6.27;;;6.00;1.00;;;;;;5068921;28;20636;-63
2022/03/15 05:39:37;;;;;;;9.20;6.17;;;6.00;1.00;;;;;;5070013;28;20441;-60
2022/03/15 05:42:03;;;;;;;12.90;7.67;;;6.00;1.00;;;;;;5068158;28;20241;-62
2022/03/15 05:44:28;;;;;;;10.67;7.03;;;6.10;1.00;;;;;;5067660;28;20217;-61
2022/03/15 05:46:55;;;;;;;9.40;7.10;;;6.00;1.00;;;;;;5069387;28;20452;-61
2022/03/15 05:49:20;;;;;;;8.93;7.00;;;6.10;1.00;;;;;;5067941;28;20185;-62
2022/03/15 05:51:46;;;;;;;7.53;6.40;;;6.20;1.00;;;;;;5068592;28;20437;-61
2022/03/15 05:54:11;;;;;;;10.10;7.10;;;6.20;1.00;;;;;;5069177;28;20219;-61
2022/03/15 05:56:39;;;;;;;9.83;7.00;;;6.20;1.00;;;;;;5067694;28;20180;-61
2022/03/15 05:59:08;;;;;;;8.40;6.13;;;6.30;1.00;;;;;;5070354;28;20633;-62
2022/03/15 06:01:33;;;;;;;10.00;6.93;;;6.40;1.00;;;;;;5066153;28;20469;-62
2022/03/15 06:04:00;;;;;;;7.40;6.50;;;6.40;1.00;;;;;;5071615;28;20952;-62
2022/03/15 06:06:26;;;;;;;8.13;6.33;;;6.40;1.00;;;;;;5065704;28;20195;-62
2022/03/15 06:08:51;;;;;;;8.50;6.40;;;6.40;1.00;;;;;;5069589;28;20448;-62
2022/03/15 06:11:19;;;;;;;9.63;7.40;;;6.50;1.00;;;;;;5071483;28;20179;-62
2022/03/15 06:13:45;;;;;;;11.40;6.67;;;6.60;1.00;;;;;;5073267;28;20203;-61
2022/03/15 06:16:11;;;;;;;7.77;6.20;;;6.60;1.00;;;;;;5055202;28;20467;-61
2022/03/15 06:18:37;;;;;;;7.50;6.37;;;6.60;1.00;;;;;;5073818;28;20187;-61
2022/03/15 06:21:05;;;;;;;9.50;7.03;;;6.70;1.00;;;;;;5074892;28;20437;-61
2022/03/15 06:23:31;;;;;;;7.80;6.40;;;6.90;1.00;;;;;;5071655;28;20449;-60
2022/03/15 06:25:56;;;;;;;8.77;7.87;;;6.90;1.00;;;;;;5073290;28;20441;-60
2022/03/15 06:28:22;;;;;;;9.30;7.00;;;6.90;1.00;;;;;;5070740;28;20183;-60
2022/03/15 06:30:47;;;;;;;10.77;7.73;;;7.00;1.00;;;;;;5073058;28;20194;-61
2022/03/15 06:33:13;;;;;;;9.77;7.00;;;7.00;1.00;;;;;;5072174;28;20210;-61
2022/03/15 06:35:39;;;;;;;11.40;6.87;;;7.00;1.00;;;;;;5070870;28;20204;-60
2022/03/15 06:38:05;;;;;;;12.03;7.67;;;;;;;;;;5072824;28;20437;-61
2022/03/15 06:40:33;;;;;;;10.67;6.70;;;7.20;1.00;;;;;;5053013;28;20195;-60
2022/03/15 06:42:59;;;;;;;11.00;7.70;;;7.30;1.00;;;;;;5071696;28;20441;-61
2022/03/15 06:45:25;;;;;;;8.50;6.60;;;7.30;1.00;;;;;;5071724;28;20966;-60
2022/03/15 06:47:50;;;;;;;9.50;7.43;;;7.40;1.00;;;;;;5071715;28;20655;-61
2022/03/15 06:50:16;;;;;;;13.67;7.90;;;7.60;1.00;;;;;;5072103;28;20217;-62
2022/03/15 06:52:43;;;;;;;10.30;7.10;;;7.50;1.00;;;;;;5072403;28;20195;-62
2022/03/15 06:55:10;;;;;;;10.33;7.20;;;7.70;1.00;;;;;;5072613;28;20183;-60
2022/03/15 06:57:36;;;;;;;14.37;7.90;;;7.70;1.00;;;;;;5071603;28;20441;-61
2022/03/15 07:00:05;;;;;;;11.50;7.93;;;7.70;1.00;;;;;;5071433;28;20441;-61
2022/03/15 07:02:30;;;;;;;10.43;8.03;;;7.80;1.00;;;;;;5070005;28;20262;-61
2022/03/15 07:04:56;;;;;;;9.07;7.20;;;7.90;1.00;;;;;;5071288;28;20488;-62
2022/03/15 07:07:21;;;;;;;9.80;7.00;;;7.90;1.00;;;;;;5072126;28;20233;-61
2022/03/15 07:09:47;;;;;;;10.30;7.90;;;7.90;1.00;;;;;;5054749;28;20210;-61
2022/03/15 07:12:12;;;;;;;13.63;8.70;;;8.10;1.00;;;;;;5069867;28;20228;-63
2022/03/15 07:14:38;;;;;;;12.90;7.83;;;8.10;1.00;;;;;;5070460;28;20635;-61
2022/03/15 07:17:04;;;;;;;11.57;8.73;;;8.10;1.00;;;;;;5069661;28;20658;-62
2022/03/15 07:19:30;;;;;;;9.00;7.50;;;8.30;1.00;;;;;;5071597;28;20190;-61
2022/03/15 07:21:55;;;;;;;18.80;8.00;;;8.30;1.00;;;;;;5073315;28;20266;-62
2022/03/15 07:24:21;;;;;;;13.40;7.53;;;8.30;1.00;;;;;;5072408;28;20217;-62
2022/03/15 07:26:47;;;;;;;11.40;7.37;;;8.40;1.00;;;;;;5073003;28;20338;-60
2022/03/15 07:29:13;;;;;;;9.73;7.33;;;;;;;;;;5072350;28;20536;-60
2022/03/15 07:31:39;;;;;;;10.00;7.30;;;;;;;;;;5069952;28;20244;-62
2022/03/15 07:34:04;;;;;;;9.23;8.10;;;8.60;1.00;;;;;;5071014;28;20499;-62
2022/03/15 07:36:30;;;;;;;11.47;7.90;;;8.70;1.00;;;;;;5069998;28;20507;-63
2022/03/15 07:38:56;;;;;;;9.07;7.83;;;8.90;1.00;;;;;;5076342;28;20587;-61
2022/03/15 07:41:23;;;;;;;10.43;8.00;;;6.50;1.00;;;;;;5069737;28;20201;-62
2022/03/15 07:43:49;;;;;;;9.90;8.23;;;9.20;1.00;;;;;;5071414;28;20183;-60
2022/03/15 07:46:16;;;;;;;12.50;9.43;;;9.40;1.00;;;;;;5070909;28;20534;-62
2022/03/15 07:48:41;;;;;;;10.37;7.60;;;9.50;1.00;;;;;;5071203;28;20438;-62
2022/03/15 07:51:07;;;;;;;11.33;7.77;;;9.50;1.00;;;;;;5070263;28;20491;-63
2022/03/15 07:53:33;;;;;;;10.30;8.20;;;;;;;;;;5071856;28;20286;-62
2022/03/15 07:56:01;;;;;;;11.03;7.90;;;9.80;1.00;;;;;;5066696;28;20180;-63
2022/03/15 07:58:27;;;;;;;11.20;8.40;;;9.90;1.00;;;;;;5071184;28;20935;-62
2022/03/15 08:00:56;;;;;;;12.90;9.73;;;10.00;1.00;;;;;;5068624;28;20472;-62
2022/03/15 08:03:25;;;;;;;11.93;8.80;;;10.30;1.00;;;;;;5070190;28;20437;-62
2022/03/15 08:05:51;;;;;;;8.43;7.13;;;10.30;1.00;;;;;;5072058;28;20450;-61
2022/03/15 08:08:17;;;;;;;10.50;8.37;;;10.30;1.00;;;;;;5069200;28;20460;-63
2022/03/15 08:10:45;;;;;;;11.50;7.97;;;10.30;1.00;;;;;;5066318;28;20445;-62
2022/03/15 08:13:11;;;;;;;8.50;7.33;;;10.60;1.00;;;;;;5069366;28;20207;-62
2022/03/15 08:15:37;;;;;;;11.93;8.23;;;10.60;1.00;;;;;;5070305;28;20449;-62
2022/03/15 08:18:03;;;;;;;12.43;7.00;;;10.70;1.00;;;;;;5069612;28;20190;-61
2022/03/15 08:20:32;;;;;;;9.40;7.60;;;10.80;1.00;;;;;;5065708;28;20627;-61
2022/03/15 08:23:02;;;;;;;11.07;7.77;;;11.00;1.00;;;;;;5048834;28;20460;-62
2022/03/15 08:25:28;;;;;;;9.00;7.40;;;11.00;1.00;;;;;;5068582;28;20446;-62
2022/03/15 08:27:54;;;;;;;8.83;7.17;;;11.10;1.00;;;;;;5070138;28;20468;-61
2022/03/15 08:30:20;;;;;;;13.60;7.93;;;11.30;1.00;;;;;;5068697;28;20183;-62
2022/03/15 08:32:46;;;;;;;11.70;7.47;;;11.30;1.00;;;;;;5072124;28;20462;-61
2022/03/15 08:35:12;;;;;;;11.60;8.10;;;11.50;1.00;;;;;;5070304;28;20795;-62
2022/03/15 08:37:37;;;;;;;9.00;7.63;;;11.50;1.00;;;;;;5069630;28;20180;-63
2022/03/15 08:40:04;;;;;;;9.67;7.80;;;11.60;1.00;;;;;;5070551;28;20914;-61
2022/03/15 08:42:29;;;;;;;9.73;7.47;;;11.90;1.00;;;;;;5068540;28;20266;-63
2022/03/15 08:44:55;;;;;;;11.37;7.77;;;12.10;1.00;;;;;;5070052;28;20525;-62
2022/03/15 08:47:21;;;;;;;13.03;7.77;;;12.20;1.00;;;;;;5070098;28;20279;-62
2022/03/15 08:49:46;;;;;;;9.70;6.77;;;12.30;1.00;;;;;;5070022;28;20253;-61
2022/03/15 08:52:12;;;;;;;10.30;7.93;;;12.50;1.00;;;;;;5071037;28;20704;-61
2022/03/15 08:54:39;;;;;;;11.60;7.60;;;12.50;1.00;;;;;;5070608;28;20207;-62
2022/03/15 08:57:05;;;;;;;18.13;7.90;;;12.40;1.00;;;;;;5070850;28;20236;-61
2022/03/15 08:59:31;;;;;;;12.33;7.27;;;12.40;1.00;;;;;;5070884;28;20441;-61
2022/03/15 09:01:57;;;;;;;9.20;7.40;;;12.70;1.00;;;;;;5070478;28;20475;-62
2022/03/15 09:04:23;;;;;;;7.80;6.80;;;12.70;1.00;;;;;;5070717;28;20445;-61
2022/03/15 09:06:48;;;;;;;8.63;6.70;;;12.70;1.00;;;;;;5070637;28;21010;-63
2022/03/15 09:09:18;;;;;;;9.50;7.43;;;13.00;1.00;;;;;;5070507;28;20433;-61
2022/03/15 09:11:45;;;;;;;10.63;7.40;;;13.50;1.00;;;;;;5070515;28;20445;-61
2022/03/15 09:14:11;;;;;;;12.23;7.20;;;13.80;1.00;;;;;;5070552;28;20469;-63
2022/03/15 09:16:36;;;;;;;8.00;7.20;;;13.70;1.00;;;;;;5070402;28;20949;-62
2022/03/15 09:19:02;;;;;;;10.10;7.80;;;13.90;1.00;;;;;;5070356;28;20187;-63
2022/03/15 09:21:28;;;;;;;8.33;7.30;;;13.90;1.00;;;;;;5070659;28;20184;-62
2022/03/15 09:23:57;;;;;;;8.00;6.67;;;13.90;1.00;;;;;;5070459;28;20203;-62
2022/03/15 09:26:24;;;;;;;10.20;7.00;;;14.00;1.00;;;;;;5072094;28;20598;-61
2022/03/15 09:28:50;;;;;;;9.83;7.37;;;13.90;1.00;;;;;;5070251;28;20488;-62
2022/03/15 09:31:16;;;;;;;11.00;7.47;;;14.00;1.00;;;;;;5070475;28;20861;-61
2022/03/15 09:33:43;;;;;;;11.10;7.80;;;14.10;1.00;;;;;;5070227;28;20473;-62
2022/03/15 09:36:09;;;;;;;12.20;7.60;;;14.10;1.00;;;;;;5070237;28;20575;-62
2022/03/15 09:38:34;;;;;;;12.53;7.07;;;14.00;1.00;;;;;;5070178;28;20524;-63
2022/03/15 09:41:05;;;;;;;12.17;8.17;;;14.00;1.00;;;;;;5070262;28;20195;-62
2022/03/15 09:43:45;;;;;;;8.93;6.70;;;14.10;1.00;;;;;;5070392;28;20260;-62
2022/03/15 09:46:13;;;;;;;8.30;7.20;;;14.40;1.00;;;;;;5055942;28;20449;-62
2022/03/15 09:48:41;;;;;;;8.67;6.70;;;14.60;1.00;;;;;;5074585;28;20796;-63
2022/03/15 09:51:12;;;;;;;9.53;7.33;;;14.70;1.00;;;;;;5074252;28;20584;-62
2022/03/15 09:53:40;;;;;;;8.90;8.00;;;14.80;1.00;;;;;;5074150;28;20889;-63
2022/03/15 09:56:05;;;;;;;9.37;6.77;;;14.90;1.00;;;;;;5075634;28;20503;-62
2022/03/15 09:58:31;;;;;;;10.00;7.40;;;14.90;1.00;;;;;;5074268;28;20433;-62
2022/03/15 10:00:57;;;;;;;10.10;7.97;;;14.90;1.00;;;;;;5073822;28;20219;-61
2022/03/15 10:03:23;;;;;;;8.00;7.17;;;14.80;1.00;;;;;;5055885;28;20591;-63
2022/03/15 10:05:50;;;;;;;11.70;7.10;;;;;;;;;;5074156;28;20433;-61
2022/03/15 10:08:17;;;;;;;10.23;7.37;;;14.90;1.00;;;;;;5073991;28;20830;-63
2022/03/15 10:10:43;;;;;;;8.70;6.70;;;15.10;1.00;;;;;;5073923;28;20476;-63
2022/03/15 10:13:09;;;;;;;9.60;7.73;;;15.20;1.00;;;;;;5073913;28;20465;-61
2022/03/15 10:15:35;;;;;;;9.17;7.07;;;;;;;;;;5074081;28;20775;-62
2022/03/15 10:18:04;;;;;;;10.83;7.20;;;15.40;1.00;;;;;;5073914;28;20649;-61
2022/03/15 10:20:38;;;;;;;9.20;7.30;;;15.30;1.00;;;;;;5075335;28;20709;-61
2022/03/15 10:23:04;;;;;;;13.10;7.43;;;15.30;1.00;;;;;;5073638;28;20543;-62
2022/03/15 10:25:32;;;;;;;9.10;7.23;;;15.30;1.00;;;;;;5073574;28;20985;-62
2022/03/15 10:28:02;;;;;;;13.87;7.50;;;15.40;1.00;;;;;;5073572;28;20433;-61
2022/03/15 10:30:30;;;;;;;11.00;7.97;;;15.30;1.00;;;;;;5073510;28;20429;-62
2022/03/15 10:32:56;;;;;;;9.17;7.47;;;15.30;1.00;;;;;;5073306;28;20512;-61
2022/03/15 10:35:25;;;;;;;10.90;6.87;;;15.30;1.00;;;;;;5073112;28;20437;-62
2022/03/15 10:37:54;;;;;;;12.47;7.77;;;15.40;1.00;;;;;;5073383;28;21226;-63
2022/03/15 10:40:36;;;;;;;10.30;6.60;;;15.90;1.00;;;;;;5073193;28;20482;-62
2022/03/15 10:43:07;;;;;;;8.80;5.90;;;16.10;1.00;;;;;;5073191;28;20495;-63
2022/03/15 10:45:34;;;;;;;10.27;5.83;;;16.10;1.00;;;;;;5073352;28;20429;-61
2022/03/15 10:48:01;;;;;;;9.10;6.33;;;16.40;1.00;;;;;;5056977;28;20840;-64
2022/03/15 10:50:30;;;;;;;10.67;6.57;;;16.40;1.00;;;;;;5072932;28;20434;-62
2022/03/15 10:52:56;;;;;;;8.40;6.50;;;16.50;1.00;;;;;;5073339;28;20437;-62
2022/03/15 10:55:28;;;;;;;9.63;6.53;;;16.90;1.00;;;;;;5072208;28;21100;-62
2022/03/15 10:57:54;;;;;;;9.77;6.63;;;;;;;;;;5073052;28;20461;-62
2022/03/15 11:00:25;;;;;;;11.67;6.87;;;16.50;1.00;;;;;;5072822;28;20508;-63
2022/03/15 11:02:51;;;;;;;9.97;6.90;;;16.30;1.00;;;;;;5072994;28;20457;-63
2022/03/15 11:05:37;;;;;;;10.20;7.00;;;16.00;1.00;;;;;;5072662;28;20910;-62
2022/03/15 11:08:14;;;;;;;8.60;6.20;;;16.10;1.00;;;;;;5072887;28;20437;-61
2022/03/15 11:10:46;;;;;;;8.33;6.77;;;16.00;1.00;;;;;;5072826;28;20516;-62
2022/03/15 11:13:12;;;;;;;10.60;6.37;;;16.00;1.00;;;;;;5073060;28;21213;-62
2022/03/15 11:15:53;;;;;;;12.10;5.97;;;16.00;1.00;;;;;;5072517;28;20438;-62
2022/03/15 11:18:19;;;;;;;7.80;6.30;;;16.00;1.00;;;;;;5072696;28;20473;-61
2022/03/15 11:20:50;;;;;;;9.73;7.33;;;16.10;1.00;;;;;;5072659;28;20438;-61
2022/03/15 11:23:17;;;;;;;9.87;7.40;;;16.20;1.00;;;;;;5072660;28;20426;-63
2022/03/15 11:25:54;;;;;;;7.70;5.93;;;16.10;1.00;;;;;;5054274;28;20437;-61
2022/03/15 11:28:25;;;;;;;10.03;7.73;;;16.10;1.00;;;;;;5071531;28;20429;-61
2022/03/15 11:30:52;;;;;;;8.97;6.37;;;16.10;1.00;;;;;;5072260;28;20619;-61
2022/03/15 11:33:18;;;;;;;11.40;7.07;;;16.00;1.00;;;;;;5072138;28;20527;-62
2022/03/15 11:35:44;;;;;;;9.43;6.87;;;15.90;1.00;;;;;;5072404;28;20931;-63
2022/03/15 11:38:13;;;;;;;10.90;6.60;;;16.10;1.00;;;;;;5072374;28;20991;-61
2022/03/15 11:40:40;;;;;;;11.60;6.57;;;16.10;1.00;;;;;;5072754;28;20434;-63
2022/03/15 11:43:17;;;;;;;11.03;7.37;;;16.30;1.00;;;;;;5072148;28;20429;-62
2022/03/15 11:45:57;;;;;;;10.30;6.90;;;16.50;1.00;;;;;;5072058;28;20424;-61
2022/03/15 11:48:36;;;;;;;12.10;7.13;;;16.50;1.00;;;;;;5054635;28;20432;-61
2022/03/15 11:51:13;;;;;;;7.60;5.87;;;16.50;1.00;;;;;;5072055;28;20449;-62
2022/03/15 11:53:47;;;;;;;8.77;5.97;;;16.40;1.00;;;;;;5071996;28;20544;-62
2022/03/15 11:56:40;;;;;;;9.30;6.30;;;16.50;1.00;;;;;;5072130;28;20892;-62
2022/03/15 11:59:06;;;;;;;7.70;6.40;;;16.50;1.00;;;;;;5071586;28;20430;-61
2022/03/15 12:01:46;;;;;;;6.93;5.73;;;16.50;1.00;;;;;;5070713;28;20460;-62
2022/03/15 12:04:12;;;;;;;7.67;5.90;;;16.40;1.00;;;;;;5072229;28;20179;-61
2022/03/15 12:06:48;;;;;;;9.33;6.70;;;16.30;1.00;;;;;;5071616;28;20867;-63
2022/03/15 12:09:19;;;;;;;8.00;5.77;;;16.30;1.00;;;;;;5056615;28;20441;-63
2022/03/15 12:11:46;;;;;;;14.57;6.80;;;16.30;1.00;;;;;;5071361;28;20502;-61
2022/03/15 12:14:17;;;;;;;7.90;5.40;;;16.30;1.00;;;;;;5071434;28;21240;-61
2022/03/15 12:16:49;;;;;;;8.63;5.80;;;16.20;1.00;;;;;;5071549;28;20430;-61
2022/03/15 12:19:35;;;;;;;8.93;5.77;;;16.10;1.00;;;;;;5071474;28;20441;-61
2022/03/15 12:22:05;;;;;;;11.60;6.07;;;16.10;1.00;;;;;;5053273;28;20482;-62
2022/03/15 12:24:39;;;;;;;7.17;5.70;;;16.00;1.00;;;;;;5071513;28;20437;-60
2022/03/15 12:27:20;;;;;;;9.00;5.40;;;16.00;1.00;;;;;;5071054;28;20433;-62
2022/03/15 12:29:53;;;;;;;7.60;5.17;;;15.70;1.00;;;;;;5071246;28;20535;-61
2022/03/15 12:32:19;;;;;;;10.43;5.10;;;15.60;1.00;;;;;;5071164;28;20433;-63
2022/03/15 12:34:49;;;;;;;9.07;5.83;;;15.70;1.00;;;;;;5075959;28;20479;-63
2022/03/15 12:37:16;;;;;;;7.10;5.50;;;15.70;1.00;;;;;;5071374;28;20430;-64
2022/03/15 12:39:53;;;;;;;7.73;5.67;;;15.70;1.00;;;;;;5071099;28;20961;-63
2022/03/15 12:42:22;;;;;;;7.93;5.13;;;15.70;1.00;;;;;;5071236;28;20448;-63
2022/03/15 12:44:52;;;;;;;8.00;6.07;;;15.80;1.00;;;;;;5075326;28;20437;-62
2022/03/15 12:47:25;;;;;;;8.33;5.83;;;15.80;1.00;;;;;;5071024;28;20422;-62
2022/03/15 12:50:13;;;;;;;6.97;5.60;;;15.80;1.00;;;;;;5070726;28;20513;-63
2022/03/15 12:52:53;;;;;;;9.03;6.17;;;16.20;1.00;;;;;;5070997;28;20779;-62
2022/03/15 12:55:20;;;;;;;8.43;5.60;;;16.20;1.00;;;;;;5070899;28;20449;-64
2022/03/15 12:57:48;;;;;;;8.10;5.63;;;16.20;1.00;;;;;;5071114;28;20437;-62
2022/03/15 13:00:16;;;;;;;8.07;5.90;;;16.30;1.00;;;;;;5070911;28;20826;-63
2022/03/15 13:02:41;;;;;;;7.10;5.67;;;16.40;1.00;;;;;;5070177;28;20499;-63
2022/03/15 13:05:15;;;;;;;9.30;5.27;;;16.30;1.00;;;;;;5070871;28;21076;-61
2022/03/15 13:07:51;;;;;;;10.63;5.60;;;16.20;1.00;;;;;;5073418;28;20203;-63
2022/03/15 13:10:28;;;;;;;10.03;5.60;;;16.10;1.00;;;;;;5070575;28;20826;-63
2022/03/15 13:12:55;;;;;;;5.57;4.90;;;16.30;1.00;;;;;;5070842;28;20433;-64
2022/03/15 13:15:21;;;;;;;6.53;5.57;;;;;;;;;;5070489;28;20795;-63